createdAt,value
2023-04-17T00:00:17.742Z,13.2566
2023-04-17T00:01:20.335Z,12.9267
2023-04-17T00:02:23.028Z,13.4856
2023-04-17T00:03:25.557Z,12.8123
2023-04-17T00:04:28.156Z,13.3186
2023-04-17T00:05:30.696Z,13.3924
2023-04-17T00:06:33.210Z,12.9997
2023-04-17T00:07:35.824Z,12.7917
2023-04-17T00:08:38.655Z,12.9448
2023-04-17T00:09:40.995Z,13.4438
2023-04-17T00:10:44.442Z,12.3382
2023-04-17T00:11:46.157Z,12.6709
2023-04-17T00:12:48.707Z,13.2536
2023-04-17T00:13:51.322Z,12.8621
2023-04-17T00:14:54.078Z,12.7295
2023-04-17T00:15:56.595Z,12.5683
2023-04-17T00:16:59.044Z,13.0556
2023-04-17T00:18:01.777Z,12.4794
2023-04-17T00:19:04.204Z,12.3462
2023-04-17T00:20:07.122Z,12.8044
2023-04-17T00:21:09.375Z,13.0300
2023-04-17T00:22:11.980Z,12.6687
2023-04-17T00:23:14.542Z,12.4204
2023-04-17T00:24:17.148Z,12.6677
2023-04-17T00:25:19.712Z,12.8897
2023-04-17T00:26:22.304Z,12.1452
2023-04-17T00:27:24.859Z,12.3845
2023-04-17T00:28:27.474Z,11.9665
2023-04-17T00:29:30.029Z,11.9062
2023-04-17T00:30:32.642Z,12.7457
2023-04-17T00:31:35.226Z,12.2667
2023-04-17T00:32:37.890Z,12.6364
2023-04-17T00:33:40.566Z,12.4477
2023-04-17T00:34:42.974Z,11.5132
2023-04-17T00:35:45.532Z,11.9978
2023-04-17T00:36:48.136Z,12.0672
2023-04-17T00:37:50.720Z,12.1640
2023-04-17T00:38:53.311Z,12.3074
2023-04-17T00:39:55.865Z,12.1121
2023-04-17T00:40:58.469Z,11.3503
2023-04-17T00:42:01.319Z,12.0450
2023-04-17T00:43:03.613Z,11.6530
2023-04-17T00:44:06.365Z,11.8470
2023-04-17T00:45:08.780Z,11.8025
2023-04-17T00:46:11.439Z,12.0087
2023-04-17T00:47:13.956Z,11.0094
2023-04-17T00:48:16.576Z,11.2953
2023-04-17T00:49:19.127Z,12.2715
2023-04-17T00:50:21.747Z,11.7117
2023-04-17T00:51:24.301Z,11.5197
2023-04-17T00:52:27.109Z,11.1438
2023-04-17T00:53:29.463Z,11.4600
2023-04-17T00:54:32.090Z,10.9019
2023-04-17T00:55:34.645Z,10.9343
2023-04-17T00:56:37.246Z,10.4635
2023-04-17T00:57:39.812Z,11.4415
2023-04-17T00:58:42.406Z,11.0816
2023-04-17T00:59:44.960Z,11.8786
2023-04-17T01:00:47.606Z,11.1147
2023-04-17T01:01:50.208Z,11.1297
2023-04-17T01:02:52.829Z,11.7787
2023-04-17T01:03:55.764Z,11.4623
2023-04-17T01:04:57.987Z,11.1402
2023-04-17T01:06:00.538Z,11.2714
2023-04-17T01:07:03.173Z,11.3421
2023-04-17T01:08:05.703Z,10.8902
2023-04-17T01:09:08.306Z,11.0664
2023-04-17T01:10:10.862Z,11.2259
2023-04-17T01:11:13.469Z,11.0956
2023-04-17T01:12:16.023Z,10.6153
2023-04-17T01:13:18.664Z,10.9618
2023-04-17T01:14:21.209Z,11.0320
2023-04-17T01:15:23.821Z,10.3313
2023-04-17T01:16:26.380Z,10.7748
2023-04-17T01:17:28.987Z,11.0574
2023-04-17T01:18:31.527Z,10.4177
2023-04-17T01:19:34.350Z,11.1748
2023-04-17T01:20:37.006Z,10.7806
2023-04-17T01:21:39.308Z,10.5749
2023-04-17T01:22:41.854Z,10.9355
2023-04-17T01:23:44.470Z,10.6989
2023-04-17T01:24:47.039Z,10.0067
2023-04-17T01:25:49.637Z,10.1355
2023-04-17T01:26:52.202Z,10.6467
2023-04-17T01:27:54.795Z,10.4003
2023-04-17T01:28:57.409Z,10.1357
2023-04-17T01:29:59.967Z,10.9110
2023-04-17T01:31:02.566Z,10.4730
2023-04-17T01:32:05.134Z,10.1920
2023-04-17T01:33:07.707Z,10.3857
2023-04-17T01:34:10.306Z,10.9488
2023-04-17T01:35:12.874Z,10.1415
2023-04-17T01:36:15.485Z,10.2277
2023-04-17T01:37:18.041Z,10.4461
2023-04-17T01:38:20.664Z,10.1274
2023-04-17T01:39:23.508Z,9.8693
2023-04-17T01:40:25.835Z,10.5613
2023-04-17T01:41:28.401Z,9.9968
2023-04-17T01:42:30.990Z,9.8069
2023-04-17T01:43:33.569Z,10.1051
2023-04-17T01:44:36.164Z,9.9267
2023-04-17T01:45:38.760Z,9.8086
2023-04-17T01:46:41.409Z,9.6105
2023-04-17T01:47:43.926Z,10.1352
2023-04-17T01:48:46.628Z,10.0997
2023-04-17T01:49:49.069Z,9.8311
2023-04-17T01:50:51.681Z,9.8043
2023-04-17T01:51:54.243Z,10.4249
2023-04-17T01:52:56.847Z,9.4843
2023-04-17T01:53:59.407Z,9.8295
2023-04-17T01:55:02.020Z,9.8635
2023-04-17T01:56:04.586Z,9.7066
2023-04-17T01:57:07.202Z,9.5874
2023-04-17T01:58:09.759Z,9.3036
2023-04-17T01:59:12.504Z,9.6236
2023-04-17T02:00:14.928Z,9.6493
2023-04-17T02:01:17.559Z,9.4205
2023-04-17T02:02:20.332Z,9.4340
2023-04-17T02:03:22.814Z,9.2570
2023-04-17T02:04:25.329Z,9.3582
2023-04-17T02:05:27.883Z,9.5957
2023-04-17T02:06:30.446Z,8.9247
2023-04-17T02:07:33.058Z,9.4159
2023-04-17T02:08:35.617Z,9.6223
2023-04-17T02:09:38.235Z,9.1358
2023-04-17T02:10:40.793Z,9.4446
2023-04-17T02:11:43.404Z,9.6020
2023-04-17T02:12:45.966Z,8.7251
2023-04-17T02:13:48.576Z,8.8132
2023-04-17T02:14:51.137Z,9.0119
2023-04-17T02:15:53.771Z,8.6638
2023-04-17T02:16:56.321Z,8.5299
2023-04-17T02:17:59.018Z,9.0658
2023-04-17T02:19:01.488Z,9.0242
2023-04-17T02:20:04.102Z,9.4204
2023-04-17T02:21:06.661Z,9.2044
2023-04-17T02:22:09.266Z,8.9219
2023-04-17T02:23:11.843Z,9.1696
2023-04-17T02:24:14.434Z,8.4581
2023-04-17T02:25:17.295Z,8.8199
2023-04-17T02:26:19.613Z,8.7869
2023-04-17T02:27:22.163Z,8.3998
2023-04-17T02:28:24.783Z,8.5129
2023-04-17T02:29:27.355Z,8.9135
2023-04-17T02:30:29.942Z,9.0158
2023-04-17T02:31:32.546Z,8.7847
2023-04-17T02:32:35.139Z,8.9236
2023-04-17T02:33:37.685Z,8.6457
2023-04-17T02:34:40.273Z,7.9946
2023-04-17T02:35:42.829Z,8.6129
2023-04-17T02:36:45.453Z,8.5398
2023-04-17T02:37:48.017Z,8.6630
2023-04-17T02:38:50.612Z,8.0322
2023-04-17T02:39:53.183Z,8.6599
2023-04-17T02:40:55.778Z,9.0475
2023-04-17T02:41:58.332Z,8.4420
2023-04-17T02:43:00.952Z,8.5417
2023-04-17T02:44:03.513Z,8.4147
2023-04-17T02:45:06.121Z,8.8986
2023-04-17T02:46:08.825Z,8.2629
2023-04-17T02:47:11.289Z,8.3098
2023-04-17T02:48:13.855Z,7.9441
2023-04-17T02:49:16.449Z,8.8067
2023-04-17T02:50:19.017Z,9.1914
2023-04-17T02:51:21.623Z,8.0559
2023-04-17T02:52:24.237Z,8.2118
2023-04-17T02:53:26.783Z,8.4092
2023-04-17T02:54:29.340Z,8.1780
2023-04-17T02:55:31.946Z,8.9731
2023-04-17T02:56:34.517Z,8.3969
2023-04-17T02:57:37.113Z,8.6751
2023-04-17T02:58:39.711Z,7.9926
2023-04-17T02:59:42.292Z,8.3217
2023-04-17T03:00:44.853Z,7.4732
2023-04-17T03:01:47.504Z,8.4730
2023-04-17T03:02:50.155Z,8.1825
2023-04-17T03:03:52.911Z,8.1478
2023-04-17T03:04:55.170Z,8.3140
2023-04-17T03:05:57.780Z,7.9407
2023-04-17T03:07:00.337Z,7.8945
2023-04-17T03:08:02.943Z,8.3103
2023-04-17T03:09:05.518Z,8.1674
2023-04-17T03:10:08.118Z,8.2217
2023-04-17T03:11:10.670Z,8.2459
2023-04-17T03:12:13.285Z,8.0218
2023-04-17T03:13:15.840Z,8.1493
2023-04-17T03:14:18.484Z,8.0370
2023-04-17T03:15:21.032Z,7.7973
2023-04-17T03:16:23.910Z,7.3446
2023-04-17T03:17:26.201Z,7.8019
2023-04-17T03:18:28.795Z,7.9000
2023-04-17T03:19:31.338Z,8.3509
2023-04-17T03:20:33.956Z,7.7842
2023-04-17T03:21:36.505Z,7.4898
2023-04-17T03:22:39.109Z,7.3783
2023-04-17T03:23:41.673Z,7.5529
2023-04-17T03:24:44.525Z,7.6234
2023-04-17T03:25:46.849Z,7.5115
2023-04-17T03:26:49.480Z,8.0135
2023-04-17T03:27:52.014Z,7.9522
2023-04-17T03:28:54.618Z,7.6100
2023-04-17T03:29:57.199Z,7.4310
2023-04-17T03:30:59.788Z,7.5375
2023-04-17T03:32:02.455Z,7.3561
2023-04-17T03:33:05.009Z,7.2235
2023-04-17T03:34:07.514Z,7.5231
2023-04-17T03:35:10.120Z,7.4026
2023-04-17T03:36:12.685Z,7.5860
2023-04-17T03:37:15.296Z,7.4799
2023-04-17T03:38:17.861Z,7.6000
2023-04-17T03:39:20.854Z,7.1742
2023-04-17T03:40:23.030Z,7.6217
2023-04-17T03:41:25.637Z,7.7417
2023-04-17T03:42:28.203Z,7.8284
2023-04-17T03:43:30.804Z,7.5278
2023-04-17T03:44:33.358Z,7.8417
2023-04-17T03:45:36.233Z,7.1189
2023-04-17T03:46:38.527Z,7.5666
2023-04-17T03:47:41.167Z,7.2612
2023-04-17T03:48:43.703Z,7.5341
2023-04-17T03:49:46.310Z,7.4327
2023-04-17T03:50:48.898Z,7.4858
2023-04-17T03:51:51.477Z,7.5716
2023-04-17T03:52:54.035Z,7.4727
2023-04-17T03:53:56.642Z,7.1956
2023-04-17T03:54:59.201Z,7.1627
2023-04-17T03:56:01.814Z,7.0738
2023-04-17T03:57:04.382Z,7.0062
2023-04-17T03:58:06.992Z,7.0159
2023-04-17T03:59:09.785Z,6.6578
2023-04-17T04:00:12.161Z,7.3473
2023-04-17T04:01:14.793Z,7.1016
2023-04-17T04:02:17.435Z,6.8816
2023-04-17T04:03:20.042Z,6.6795
2023-04-17T04:04:22.827Z,6.4403
2023-04-17T04:05:25.402Z,6.8939
2023-04-17T04:06:27.664Z,7.0606
2023-04-17T04:07:30.269Z,7.1820
2023-04-17T04:08:32.835Z,7.1130
2023-04-17T04:09:35.396Z,7.0537
2023-04-17T04:10:37.999Z,6.9764
2023-04-17T04:11:40.554Z,7.1603
2023-04-17T04:12:43.165Z,7.1774
2023-04-17T04:13:45.722Z,6.8337
2023-04-17T04:14:48.326Z,6.8444
2023-04-17T04:15:50.900Z,7.0971
2023-04-17T04:16:53.496Z,7.1382
2023-04-17T04:17:56.109Z,6.8738
2023-04-17T04:18:58.676Z,6.5077
2023-04-17T04:20:01.269Z,7.0625
2023-04-17T04:21:03.838Z,6.2633
2023-04-17T04:22:06.959Z,6.2499
2023-04-17T04:23:08.989Z,6.9556
2023-04-17T04:24:11.552Z,6.6107
2023-04-17T04:25:14.169Z,6.4827
2023-04-17T04:26:16.713Z,6.3823
2023-04-17T04:27:19.322Z,6.6815
2023-04-17T04:28:21.883Z,6.4047
2023-04-17T04:29:24.493Z,6.8914
2023-04-17T04:30:27.060Z,6.2684
2023-04-17T04:31:29.843Z,6.3127
2023-04-17T04:32:32.298Z,6.4398
2023-04-17T04:33:35.898Z,6.2565
2023-04-17T04:34:37.380Z,6.6149
2023-04-17T04:35:40.007Z,6.1540
2023-04-17T04:36:42.553Z,7.0420
2023-04-17T04:37:45.164Z,7.0613
2023-04-17T04:38:47.726Z,6.1853
2023-04-17T04:39:50.325Z,6.1980
2023-04-17T04:40:52.944Z,6.4020
2023-04-17T04:41:55.502Z,6.3368
2023-04-17T04:42:58.073Z,6.6959
2023-04-17T04:44:00.669Z,6.1067
2023-04-17T04:45:03.239Z,6.7206
2023-04-17T04:46:05.831Z,6.5808
2023-04-17T04:47:08.546Z,6.3216
2023-04-17T04:48:10.995Z,6.0260
2023-04-17T04:49:13.621Z,6.5122
2023-04-17T04:50:17.388Z,6.3933
2023-04-17T04:51:18.755Z,5.9838
2023-04-17T04:52:21.340Z,6.0329
2023-04-17T04:53:24.123Z,5.8805
2023-04-17T04:54:26.514Z,6.2301
2023-04-17T04:55:29.062Z,5.9248
2023-04-17T04:56:33.040Z,6.0611
2023-04-17T04:57:34.229Z,6.0999
2023-04-17T04:58:36.841Z,6.3166
2023-04-17T04:59:39.402Z,6.0741
2023-04-17T05:00:42.052Z,6.0807
2023-04-17T05:01:44.866Z,5.8913
2023-04-17T05:02:47.278Z,6.2313
2023-04-17T05:03:49.874Z,6.0631
2023-04-17T05:04:52.367Z,6.0844
2023-04-17T05:05:54.903Z,6.1574
2023-04-17T05:06:57.612Z,6.3101
2023-04-17T05:08:00.070Z,6.4027
2023-04-17T05:09:02.650Z,6.4688
2023-04-17T05:10:05.285Z,6.3509
2023-04-17T05:11:07.819Z,6.3323
2023-04-17T05:12:10.508Z,6.0993
2023-04-17T05:13:13.084Z,6.0346
2023-04-17T05:14:15.731Z,6.3920
2023-04-17T05:15:18.247Z,6.0632
2023-04-17T05:16:20.882Z,5.9692
2023-04-17T05:17:23.432Z,5.8354
2023-04-17T05:18:26.015Z,5.9983
2023-04-17T05:19:28.564Z,5.9585
2023-04-17T05:20:31.184Z,5.9315
2023-04-17T05:21:33.735Z,5.6930
2023-04-17T05:22:36.339Z,5.7312
2023-04-17T05:23:38.891Z,5.8237
2023-04-17T05:24:41.507Z,6.0395
2023-04-17T05:25:44.064Z,5.4924
2023-04-17T05:26:46.668Z,5.6968
2023-04-17T05:27:49.281Z,5.9469
2023-04-17T05:28:51.828Z,5.6294
2023-04-17T05:29:54.385Z,5.7413
2023-04-17T05:30:56.989Z,5.8621
2023-04-17T05:31:59.604Z,5.4052
2023-04-17T05:33:02.222Z,5.7137
2023-04-17T05:34:04.868Z,6.2382
2023-04-17T05:35:07.344Z,5.8155
2023-04-17T05:36:09.893Z,5.3589
2023-04-17T05:37:12.484Z,5.4459
2023-04-17T05:38:15.045Z,5.6985
2023-04-17T05:39:17.665Z,5.7929
2023-04-17T05:40:20.210Z,5.7689
2023-04-17T05:41:22.822Z,5.8813
2023-04-17T05:42:25.379Z,5.3925
2023-04-17T05:43:28.005Z,5.4544
2023-04-17T05:44:30.548Z,5.2768
2023-04-17T05:45:33.329Z,5.4937
2023-04-17T05:46:35.717Z,5.2486
2023-04-17T05:47:38.515Z,5.4872
2023-04-17T05:48:40.876Z,5.7253
2023-04-17T05:49:43.496Z,5.5144
2023-04-17T05:50:46.058Z,5.1461
2023-04-17T05:51:48.672Z,5.4439
2023-04-17T05:52:51.236Z,5.0511
2023-04-17T05:53:53.851Z,4.9988
2023-04-17T05:54:56.389Z,5.0383
2023-04-17T05:55:58.995Z,5.0109
2023-04-17T05:57:01.555Z,5.2872
2023-04-17T05:58:16.862Z,5.3586
2023-04-17T05:59:07.753Z,5.0891
2023-04-17T06:00:09.336Z,5.6297
2023-04-17T06:01:11.914Z,5.0376
2023-04-17T06:02:14.587Z,5.2112
2023-04-17T06:03:18.162Z,5.3616
2023-04-17T06:04:19.987Z,5.4943
2023-04-17T06:05:22.327Z,4.8759
2023-04-17T06:06:24.846Z,5.7018
2023-04-17T06:07:27.401Z,5.1002
2023-04-17T06:08:30.016Z,5.0540
2023-04-17T06:09:32.581Z,4.8764
2023-04-17T06:10:35.198Z,5.0595
2023-04-17T06:11:37.748Z,4.9371
2023-04-17T06:12:40.361Z,5.6339
2023-04-17T06:13:42.966Z,5.3716
2023-04-17T06:14:45.525Z,5.3682
2023-04-17T06:15:48.077Z,5.3219
2023-04-17T06:16:50.850Z,5.0668
2023-04-17T06:17:53.319Z,5.6161
2023-04-17T06:18:55.860Z,5.3687
2023-04-17T06:19:58.414Z,5.5015
2023-04-17T06:21:01.051Z,4.8841
2023-04-17T06:22:03.584Z,4.9819
2023-04-17T06:23:06.196Z,5.1168
2023-04-17T06:24:08.764Z,5.0308
2023-04-17T06:25:11.915Z,5.1764
2023-04-17T06:26:13.929Z,5.3606
2023-04-17T06:27:16.533Z,5.3926
2023-04-17T06:28:19.099Z,5.3352
2023-04-17T06:29:21.734Z,5.0648
2023-04-17T06:30:24.256Z,4.9180
2023-04-17T06:31:26.888Z,5.1061
2023-04-17T06:32:29.484Z,5.2136
2023-04-17T06:33:32.062Z,5.1578
2023-04-17T06:34:34.604Z,5.3338
2023-04-17T06:35:37.206Z,4.8850
2023-04-17T06:36:39.792Z,4.7424
2023-04-17T06:37:42.576Z,5.0271
2023-04-17T06:38:44.933Z,5.1914
2023-04-17T06:39:47.535Z,4.9258
2023-04-17T06:40:52.131Z,4.7182
2023-04-17T06:41:52.703Z,4.5305
2023-04-17T06:42:55.308Z,4.9932
2023-04-17T06:43:57.865Z,4.9972
2023-04-17T06:45:00.434Z,5.3732
2023-04-17T06:46:03.054Z,5.2253
2023-04-17T06:47:05.593Z,4.9839
2023-04-17T06:48:08.201Z,5.3833
2023-04-17T06:49:11.038Z,5.4693
2023-04-17T06:50:13.387Z,4.8878
2023-04-17T06:51:15.917Z,5.1947
2023-04-17T06:52:18.525Z,4.9303
2023-04-17T06:53:21.086Z,5.0782
2023-04-17T06:54:23.700Z,5.5037
2023-04-17T06:55:26.277Z,5.1805
2023-04-17T06:56:28.893Z,5.2561
2023-04-17T06:57:31.412Z,5.0900
2023-04-17T06:58:34.030Z,5.0837
2023-04-17T06:59:36.575Z,5.6282
2023-04-17T07:00:39.200Z,5.4207
2023-04-17T07:01:41.826Z,5.3067
2023-04-17T07:02:44.433Z,5.2191
2023-04-17T07:03:47.082Z,5.3288
2023-04-17T07:04:49.784Z,4.9893
2023-04-17T07:05:52.084Z,5.0747
2023-04-17T07:06:54.684Z,5.0583
2023-04-17T07:07:57.237Z,5.0646
2023-04-17T07:09:00.120Z,4.9999
2023-04-17T07:10:02.413Z,5.1879
2023-04-17T07:11:05.048Z,5.2508
2023-04-17T07:12:07.589Z,4.7532
2023-04-17T07:13:10.192Z,5.0764
2023-04-17T07:14:12.973Z,5.1229
2023-04-17T07:15:15.523Z,4.8973
2023-04-17T07:16:17.981Z,4.9425
2023-04-17T07:17:20.613Z,4.9892
2023-04-17T07:18:23.095Z,5.0550
2023-04-17T07:19:25.703Z,4.6485
2023-04-17T07:20:28.283Z,4.8828
2023-04-17T07:21:30.872Z,4.7780
2023-04-17T07:22:33.434Z,4.5635
2023-04-17T07:23:36.035Z,5.0771
2023-04-17T07:24:38.603Z,5.0268
2023-04-17T07:25:41.235Z,5.0394
2023-04-17T07:26:44.040Z,4.9324
2023-04-17T07:27:46.382Z,4.7996
2023-04-17T07:28:48.942Z,5.1114
2023-04-17T07:29:51.564Z,5.0940
2023-04-17T07:30:54.107Z,5.4150
2023-04-17T07:31:56.928Z,4.9480
2023-04-17T07:32:59.534Z,5.0534
2023-04-17T07:34:01.925Z,5.2289
2023-04-17T07:35:04.494Z,5.0860
2023-04-17T07:36:07.072Z,4.8823
2023-04-17T07:37:09.632Z,5.1144
2023-04-17T07:38:12.254Z,5.8301
2023-04-17T07:39:14.855Z,5.6181
2023-04-17T07:40:17.410Z,5.0248
2023-04-17T07:41:19.971Z,4.9025
2023-04-17T07:42:22.661Z,4.9563
2023-04-17T07:43:25.206Z,4.9041
2023-04-17T07:44:27.766Z,5.2108
2023-04-17T07:45:30.334Z,5.1773
2023-04-17T07:46:33.005Z,5.0070
2023-04-17T07:47:35.557Z,5.1149
2023-04-17T07:48:38.117Z,4.7536
2023-04-17T07:49:40.675Z,4.7494
2023-04-17T07:50:43.276Z,4.9962
2023-04-17T07:51:45.830Z,5.1467
2023-04-17T07:52:48.453Z,5.1822
2023-04-17T07:53:51.031Z,4.9931
2023-04-17T07:54:53.628Z,5.1615
2023-04-17T07:55:56.228Z,5.1103
2023-04-17T07:56:58.856Z,5.0240
2023-04-17T07:58:01.345Z,4.9026
2023-04-17T07:59:03.958Z,5.2855
2023-04-17T08:00:06.511Z,5.0629
2023-04-17T08:01:09.126Z,4.8509
2023-04-17T08:02:11.800Z,4.8608
2023-04-17T08:03:14.504Z,4.7070
2023-04-17T08:04:17.338Z,4.9011
2023-04-17T08:05:19.531Z,5.0153
2023-04-17T08:06:22.023Z,4.8027
2023-04-17T08:07:24.668Z,4.7123
2023-04-17T08:08:27.202Z,4.7675
2023-04-17T08:09:29.815Z,4.7093
2023-04-17T08:10:32.372Z,4.7193
2023-04-17T08:11:40.095Z,4.7310
2023-04-17T08:12:38.823Z,4.7336
2023-04-17T08:13:40.150Z,5.0791
2023-04-17T08:14:42.709Z,5.1324
2023-04-17T08:15:45.329Z,4.1875
2023-04-17T08:16:47.952Z,4.4210
2023-04-17T08:17:50.526Z,5.2285
2023-04-17T08:18:53.055Z,4.9142
2023-04-17T08:19:55.692Z,4.6543
2023-04-17T08:20:58.217Z,4.9267
2023-04-17T08:22:00.837Z,4.8502
2023-04-17T08:23:03.402Z,4.4380
2023-04-17T08:24:06.003Z,4.3498
2023-04-17T08:25:08.557Z,4.9705
2023-04-17T08:26:11.167Z,4.9149
2023-04-17T08:27:13.730Z,4.6581
2023-04-17T08:28:16.379Z,4.3218
2023-04-17T08:29:18.951Z,4.6858
2023-04-17T08:30:21.496Z,4.4827
2023-04-17T08:31:24.177Z,4.7288
2023-04-17T08:32:26.674Z,4.6338
2023-04-17T08:33:29.224Z,4.6869
2023-04-17T08:34:31.987Z,4.6548
2023-04-17T08:35:34.389Z,4.6722
2023-04-17T08:36:37.001Z,4.2625
2023-04-17T08:37:39.569Z,4.3776
2023-04-17T08:38:42.208Z,4.3359
2023-04-17T08:39:44.730Z,4.7254
2023-04-17T08:40:47.357Z,4.4112
2023-04-17T08:41:49.893Z,4.5276
2023-04-17T08:42:52.505Z,4.7680
2023-04-17T08:43:55.078Z,4.2893
2023-04-17T08:44:57.666Z,4.5158
2023-04-17T08:46:00.604Z,4.2702
2023-04-17T08:47:02.840Z,4.5122
2023-04-17T08:48:05.424Z,3.9917
2023-04-17T08:49:08.015Z,4.6984
2023-04-17T08:50:10.595Z,4.7318
2023-04-17T08:51:13.178Z,4.1507
2023-04-17T08:52:15.746Z,4.5332
2023-04-17T08:53:18.341Z,4.3643
2023-04-17T08:54:20.897Z,4.2219
2023-04-17T08:55:23.522Z,3.8827
2023-04-17T08:56:26.076Z,4.2418
2023-04-17T08:57:28.675Z,4.7490
2023-04-17T08:58:31.236Z,4.0110
2023-04-17T08:59:33.867Z,3.9918
2023-04-17T09:00:36.435Z,4.4110
2023-04-17T09:01:39.089Z,4.1835
2023-04-17T09:02:41.716Z,4.3455
2023-04-17T09:03:44.338Z,4.4271
2023-04-17T09:04:46.859Z,4.0807
2023-04-17T09:05:49.359Z,3.7475
2023-04-17T09:06:52.025Z,3.8298
2023-04-17T09:07:54.528Z,4.0668
2023-04-17T09:08:57.086Z,4.1697
2023-04-17T09:09:59.708Z,4.4286
2023-04-17T09:11:02.276Z,4.3637
2023-04-17T09:12:04.890Z,4.3703
2023-04-17T09:13:07.474Z,4.2531
2023-04-17T09:14:10.037Z,3.9157
2023-04-17T09:15:12.603Z,3.9849
2023-04-17T09:16:15.281Z,4.1951
2023-04-17T09:17:17.770Z,3.8579
2023-04-17T09:18:20.451Z,4.2761
2023-04-17T09:19:23.133Z,3.9063
2023-04-17T09:20:25.772Z,3.5722
2023-04-17T09:21:28.174Z,4.1582
2023-04-17T09:22:30.792Z,4.1369
2023-04-17T09:23:33.352Z,3.4543
2023-04-17T09:24:36.316Z,3.7142
2023-04-17T09:25:38.514Z,3.7759
2023-04-17T09:26:41.135Z,3.8739
2023-04-17T09:27:43.682Z,3.9201
2023-04-17T09:28:46.303Z,3.7566
2023-04-17T09:29:48.854Z,3.8966
2023-04-17T09:30:51.466Z,3.8304
2023-04-17T09:31:54.095Z,4.1260
2023-04-17T09:32:56.785Z,3.9476
2023-04-17T09:33:59.216Z,3.7674
2023-04-17T09:35:01.825Z,3.7233
2023-04-17T09:36:04.401Z,3.7679
2023-04-17T09:37:07.969Z,3.9413
2023-04-17T09:38:09.559Z,3.9664
2023-04-17T09:39:12.242Z,3.7995
2023-04-17T09:40:14.723Z,3.9094
2023-04-17T09:41:17.407Z,3.6191
2023-04-17T09:42:19.914Z,3.4999
2023-04-17T09:43:22.442Z,4.0098
2023-04-17T09:44:25.057Z,3.9448
2023-04-17T09:45:48.604Z,3.7592
2023-04-17T09:46:30.250Z,3.8023
2023-04-17T09:47:32.838Z,3.9059
2023-04-17T09:48:35.368Z,3.9971
2023-04-17T09:49:38.198Z,3.6460
2023-04-17T09:50:40.527Z,3.4891
2023-04-17T09:51:43.155Z,3.7929
2023-04-17T09:52:45.713Z,4.0022
2023-04-17T09:53:48.363Z,4.0798
2023-04-17T09:54:50.849Z,3.9617
2023-04-17T09:55:53.467Z,3.3132
2023-04-17T09:56:56.213Z,3.4713
2023-04-17T09:57:58.625Z,3.6634
2023-04-17T09:59:01.193Z,4.1514
2023-04-17T10:00:03.786Z,3.6857
2023-04-17T10:01:06.401Z,3.4303
2023-04-17T10:02:09.092Z,3.8095
2023-04-17T10:03:11.760Z,3.5073
2023-04-17T10:04:14.440Z,3.6610
2023-04-17T10:05:16.672Z,4.0056
2023-04-17T10:06:19.306Z,3.9270
2023-04-17T10:07:21.842Z,3.5716
2023-04-17T10:08:24.451Z,3.8360
2023-04-17T10:09:27.043Z,3.4035
2023-04-17T10:10:29.670Z,3.4812
2023-04-17T10:11:32.196Z,3.6043
2023-04-17T10:12:35.113Z,3.7573
2023-04-17T10:13:37.337Z,3.5282
2023-04-17T10:14:39.953Z,3.4953
2023-04-17T10:15:42.500Z,4.3329
2023-04-17T10:16:45.327Z,39.3422
2023-04-17T10:17:47.677Z,26.2254
2023-04-17T10:18:50.293Z,23.7130
2023-04-17T10:19:52.852Z,23.4316
2023-04-17T10:20:55.534Z,12.6602
2023-04-17T10:21:58.006Z,12.2444
2023-04-17T10:23:00.617Z,12.4447
2023-04-17T10:24:03.174Z,12.3549
2023-04-17T10:25:05.768Z,11.8662
2023-04-17T10:26:08.335Z,11.2478
2023-04-17T10:27:10.958Z,12.3302
2023-04-17T10:28:13.507Z,12.1198
2023-04-17T10:29:16.109Z,11.1993
2023-04-17T10:31:21.311Z,10.0643
2023-04-17T10:32:23.818Z,10.2747
2023-04-17T10:33:26.470Z,10.3253
2023-04-17T10:34:29.045Z,10.0910
2023-04-17T10:35:31.603Z,10.1300
2023-04-17T10:36:34.156Z,10.4706
2023-04-17T10:37:36.764Z,10.2330
2023-04-17T10:38:39.319Z,10.3080
2023-04-17T10:39:41.928Z,10.3023
2023-04-17T10:40:44.548Z,10.5451
2023-04-17T10:41:47.106Z,10.6889
2023-04-17T10:42:49.661Z,10.5813
2023-04-17T10:43:52.290Z,10.0027
2023-04-17T10:44:54.845Z,10.2536
2023-04-17T10:45:57.531Z,9.8553
2023-04-17T10:46:59.993Z,9.9031
2023-04-17T10:48:02.697Z,10.3411
2023-04-17T10:49:05.185Z,9.6009
2023-04-17T10:50:07.790Z,9.9591
2023-04-17T10:51:10.355Z,8.9112
2023-04-17T10:52:12.944Z,9.4160
2023-04-17T10:53:15.504Z,9.1461
2023-04-17T10:54:18.114Z,9.7305
2023-04-17T10:55:20.686Z,8.9721
2023-04-17T10:56:23.285Z,9.6057
2023-04-17T10:57:26.176Z,9.4080
2023-04-17T10:58:31.616Z,9.2984
2023-04-17T10:59:31.010Z,9.7963
2023-04-17T11:00:33.628Z,9.2766
2023-04-17T11:01:36.197Z,9.5045
2023-04-17T11:02:38.841Z,16.1342
2023-04-17T11:03:41.375Z,24.3231
2023-04-17T11:04:43.979Z,19.5287
2023-04-17T11:05:46.524Z,13.8206
2023-04-17T11:06:49.136Z,10.5230
2023-04-17T11:07:51.676Z,10.3612
2023-04-17T11:08:55.615Z,10.3845
2023-04-17T11:09:56.824Z,10.7834
2023-04-17T11:10:59.461Z,11.2895
2023-04-17T11:12:02.383Z,11.7340
2023-04-17T11:13:04.606Z,11.7008
2023-04-17T11:14:07.152Z,11.2032
2023-04-17T11:15:09.818Z,11.1463
2023-04-17T11:16:12.318Z,11.0387
2023-04-17T11:17:14.954Z,11.7077
